createdAt,value
2019-03-10T03:07:43.727Z,24.6
2019-03-10T03:08:34.003Z,24.6
2019-03-10T03:09:24.959Z,24.5
2019-03-10T03:10:14.652Z,24.5
2019-03-10T03:11:03.916Z,24.4
2019-03-10T03:11:55.062Z,24.4
2019-03-10T03:12:44.983Z,24.4
2019-03-10T03:13:34.663Z,24.4
2019-03-10T03:14:25.226Z,24.4
2019-03-10T03:15:15.253Z,24.3
2019-03-10T03:16:04.797Z,24.4
2019-03-10T03:16:58.332Z,24.3
2019-03-10T03:17:44.127Z,24.4
2019-03-10T03:18:34.657Z,24.4
2019-03-10T03:19:24.279Z,24.4
2019-03-10T03:20:15.400Z,24.5
2019-03-10T03:21:05.862Z,24.6
2019-03-10T03:21:56.064Z,24.6
2019-03-10T03:22:45.599Z,24.8
2019-03-10T03:23:35.608Z,24.9
2019-03-10T03:24:25.924Z,25
2019-03-10T03:25:15.709Z,25.1
2019-03-10T03:26:04.851Z,25.3
2019-03-10T03:26:56.426Z,25.4
2019-03-10T03:27:45.114Z,25.5
2019-03-10T03:28:35.539Z,25.6
2019-03-10T03:29:26.085Z,25.8
2019-03-10T03:30:16.091Z,25.8
2019-03-10T03:31:06.795Z,25.9
2019-03-10T03:31:55.391Z,26
2019-03-10T03:32:46.643Z,26.1
2019-03-10T03:33:36.657Z,26.1
2019-03-10T03:34:26.281Z,26.1
2019-03-10T03:35:16.941Z,26.1
2019-03-10T03:36:06.599Z,26.1
2019-03-10T03:36:56.524Z,26
2019-03-10T03:37:46.670Z,25.8
2019-03-10T03:38:37.373Z,25.8
2019-03-10T03:39:26.010Z,25.6
2019-03-10T03:40:16.209Z,25.5
2019-03-10T03:41:06.856Z,25.4
2019-03-10T03:41:56.123Z,25.4
2019-03-10T03:42:47.029Z,25.3
2019-03-10T03:43:37.329Z,25.3
2019-03-10T03:44:26.572Z,25.2
2019-03-10T03:45:16.917Z,25.1
2019-03-10T03:46:06.783Z,25.1
2019-03-10T03:46:57.060Z,25
2019-03-10T03:47:47.087Z,25
2019-03-10T03:48:36.875Z,24.9
2019-03-10T03:49:27.470Z,24.9
2019-03-10T03:50:16.392Z,24.9
2019-03-10T03:51:06.665Z,24.9
2019-03-10T03:51:58.035Z,24.8
2019-03-10T03:52:46.895Z,24.8
2019-03-10T03:53:37.485Z,24.8
2019-03-10T03:54:27.108Z,24.7
2019-03-10T03:55:17.093Z,24.7
2019-03-10T03:56:07.123Z,24.6
2019-03-10T03:56:56.992Z,24.6
2019-03-10T03:57:47.473Z,24.6
2019-03-10T03:58:38.155Z,24.6
2019-03-10T03:59:27.532Z,24.5
2019-03-10T04:00:17.229Z,24.5
2019-03-10T04:01:08.339Z,24.4
2019-03-10T04:01:58.664Z,24.4
2019-03-10T04:02:48.241Z,24.4
2019-03-10T04:03:38.791Z,24.4
2019-03-10T04:04:28.304Z,24.4
2019-03-10T04:05:18.452Z,24.4
2019-03-10T04:06:07.934Z,24.4
2019-03-10T04:06:57.494Z,24.4
2019-03-10T04:07:48.968Z,24.4
2019-03-10T04:08:37.862Z,24.5
2019-03-10T04:09:28.469Z,24.6
2019-03-10T04:10:18.180Z,24.6
2019-03-10T04:11:08.042Z,24.8
2019-03-10T04:11:58.574Z,24.9
2019-03-10T04:12:47.267Z,25
2019-03-10T04:13:38.681Z,25.1
2019-03-10T04:14:29.849Z,25.3
2019-03-10T04:15:19.353Z,25.4
2019-03-10T04:16:07.926Z,25.4
2019-03-10T04:16:58.957Z,25.6
2019-03-10T04:17:48.992Z,25.7
2019-03-10T04:18:39.914Z,25.8
2019-03-10T04:19:28.793Z,25.9
2019-03-10T04:20:19.638Z,26
2019-03-10T04:21:09.868Z,26.1
2019-03-10T04:21:59.756Z,26.1
2019-03-10T04:22:50.453Z,26.1
2019-03-10T04:23:40.236Z,26.1
2019-03-10T04:24:28.934Z,26.1
2019-03-10T04:25:19.550Z,26.1
2019-03-10T04:26:09.929Z,25.9
2019-03-10T04:26:59.643Z,25.8
2019-03-10T04:27:50.190Z,25.7
2019-03-10T04:28:40.103Z,25.6
2019-03-10T04:29:30.369Z,25.5
2019-03-10T04:30:20.489Z,25.4
2019-03-10T04:31:10.510Z,25.3
2019-03-10T04:32:01.193Z,25.3
2019-03-10T04:32:50.604Z,25.2
2019-03-10T04:33:40.964Z,25.2
2019-03-10T04:34:30.434Z,25.1
2019-03-10T04:35:20.507Z,25.1
2019-03-10T04:36:10.831Z,25
2019-03-10T04:37:01.394Z,24.9
2019-03-10T04:37:50.721Z,24.9
2019-03-10T04:38:40.917Z,24.9
2019-03-10T04:39:30.444Z,24.8
2019-03-10T04:40:20.849Z,24.8
2019-03-10T04:41:11.502Z,24.7
2019-03-10T04:42:00.927Z,24.7
2019-03-10T04:42:50.660Z,24.7
2019-03-10T04:43:41.061Z,24.6
2019-03-10T04:44:31.137Z,24.6
2019-03-10T04:45:21.132Z,24.6
2019-03-10T04:46:11.312Z,24.5
2019-03-10T04:47:02.095Z,24.5
2019-03-10T04:47:51.039Z,24.4
2019-03-10T04:48:42.286Z,24.4
2019-03-10T04:49:31.721Z,24.4
2019-03-10T04:50:24.064Z,24.4
2019-03-10T04:51:12.123Z,24.3
2019-03-10T04:52:01.036Z,24.3
2019-03-10T04:52:51.741Z,24.3
2019-03-10T04:53:42.336Z,24.4
2019-03-10T04:54:31.810Z,24.4
2019-03-10T04:55:21.841Z,24.4
2019-03-10T04:56:11.941Z,24.4
2019-03-10T04:57:04.003Z,24.5
2019-03-10T04:57:52.311Z,24.6
2019-03-10T04:58:42.133Z,24.6
2019-03-10T04:59:32.493Z,24.6
2019-03-10T05:00:22.626Z,24.8
2019-03-10T05:01:12.875Z,24.9
2019-03-10T05:02:02.391Z,25
2019-03-10T05:02:52.992Z,25.1
2019-03-10T05:03:42.050Z,25.3
2019-03-10T05:04:35.318Z,25.4
2019-03-10T05:05:22.571Z,25.5
2019-03-10T05:06:13.035Z,25.6
2019-03-10T05:07:02.753Z,25.8
2019-03-10T05:07:52.765Z,25.9
2019-03-10T05:08:43.095Z,25.9
2019-03-10T05:09:32.895Z,26
2019-03-10T05:10:25.705Z,26.1
2019-03-10T05:11:13.090Z,26.1
2019-03-10T05:12:03.078Z,26
2019-03-10T05:12:53.160Z,26.1
2019-03-10T05:13:44.078Z,25.9
2019-03-10T05:14:33.512Z,25.8
2019-03-10T05:15:23.640Z,25.7
2019-03-10T05:16:13.165Z,25.6
2019-03-10T05:17:03.470Z,25.5
2019-03-10T05:17:53.210Z,25.4
2019-03-10T05:18:43.285Z,25.3
2019-03-10T05:19:32.840Z,25.2
2019-03-10T05:20:24.237Z,25.1
2019-03-10T05:21:13.869Z,25.1
2019-03-10T05:22:03.785Z,25.1
2019-03-10T05:22:54.230Z,25
2019-03-10T05:23:43.682Z,24.9
2019-03-10T05:24:33.744Z,24.9
2019-03-10T05:25:23.987Z,24.9
2019-03-10T05:26:13.657Z,24.8
2019-03-10T05:27:03.951Z,24.8
2019-03-10T05:27:53.158Z,24.8
2019-03-10T05:28:44.819Z,24.8
2019-03-10T05:29:34.894Z,24.7
2019-03-10T05:30:24.934Z,24.6
2019-03-10T05:31:14.534Z,24.6
2019-03-10T05:32:04.904Z,24.6
2019-03-10T05:32:54.925Z,24.6
2019-03-10T05:33:44.724Z,24.5
2019-03-10T05:34:34.479Z,24.5
2019-03-10T05:35:25.060Z,24.4
2019-03-10T05:36:15.110Z,24.4
2019-03-10T05:37:04.894Z,24.4
2019-03-10T05:37:55.209Z,24.4
2019-03-10T05:38:45.276Z,24.4
2019-03-10T05:39:34.764Z,24.3
2019-03-10T05:40:25.397Z,24.3
2019-03-10T05:41:14.131Z,24.3
2019-03-10T05:42:05.609Z,24.4
2019-03-10T05:42:54.999Z,24.4
2019-03-10T05:43:45.949Z,24.4
2019-03-10T05:44:35.709Z,24.5
2019-03-10T05:45:25.476Z,24.6
2019-03-10T05:46:15.851Z,24.6
2019-03-10T05:47:05.319Z,24.7
2019-03-10T05:47:55.943Z,24.8
2019-03-10T05:48:46.455Z,24.9
2019-03-10T05:49:34.737Z,25.1
2019-03-10T05:50:25.546Z,25.2
2019-03-10T05:51:15.660Z,25.3
2019-03-10T05:52:05.433Z,25.4
2019-03-10T05:52:56.110Z,25.6
2019-03-10T05:53:45.041Z,25.7
2019-03-10T05:54:36.428Z,25.8
2019-03-10T05:55:26.768Z,25.9
2019-03-10T05:56:16.290Z,26
2019-03-10T05:57:06.903Z,26.1
2019-03-10T05:57:56.448Z,26.1
2019-03-10T05:58:46.811Z,26.1
2019-03-10T05:59:36.272Z,26.1
2019-03-10T06:00:25.754Z,26.1
2019-03-10T06:01:16.722Z,26
2019-03-10T06:02:07.553Z,25.9
2019-03-10T06:02:55.917Z,25.8
2019-03-10T06:05:44.332Z,25.4
2019-03-10T06:06:34.270Z,25.4
2019-03-10T06:07:23.802Z,25.3
2019-03-10T06:08:14.173Z,25.2
2019-03-10T06:09:03.437Z,25.1
2019-03-10T06:09:54.527Z,25.1
2019-03-10T06:10:44.305Z,25.1
2019-03-10T06:11:34.917Z,25
2019-03-10T06:12:25.005Z,24.9
2019-03-10T06:13:14.212Z,24.9
2019-03-10T06:14:03.995Z,24.9
2019-03-10T06:14:54.921Z,24.8
2019-03-10T06:15:44.939Z,24.8
2019-03-10T06:16:35.274Z,24.8
2019-03-10T06:17:26.864Z,24.7
2019-03-10T06:18:20.612Z,24.7
2019-03-10T06:19:05.737Z,24.6
2019-03-10T06:19:55.562Z,24.6
2019-03-10T06:20:45.303Z,24.6
2019-03-10T06:21:35.139Z,24.6
2019-03-10T06:22:24.873Z,24.5
2019-03-10T06:23:14.755Z,24.5
2019-03-10T06:24:05.269Z,24.4
2019-03-10T06:24:55.616Z,24.4
2019-03-10T06:25:44.631Z,24.4
2019-03-10T06:26:36.281Z,24.3
2019-03-10T06:27:25.963Z,24.3
2019-03-10T06:28:15.296Z,24.4
2019-03-10T06:29:05.943Z,24.4
2019-03-10T06:29:55.966Z,24.4
2019-03-10T06:30:46.106Z,24.5
2019-03-10T06:31:35.413Z,24.6
2019-03-10T06:32:26.161Z,24.6
2019-03-10T06:33:15.428Z,24.7
2019-03-10T06:34:06.067Z,24.8
2019-03-10T06:34:56.074Z,24.9
2019-03-10T06:35:46.111Z,25
2019-03-10T06:36:35.886Z,25.1
2019-03-10T06:37:26.554Z,25.3
2019-03-10T06:38:15.796Z,25.4
2019-03-10T06:39:06.722Z,25.5
2019-03-10T06:39:56.168Z,25.6
2019-03-10T06:40:46.540Z,25.8
2019-03-10T06:41:36.072Z,25.9
2019-03-10T06:42:26.667Z,25.9
2019-03-10T06:43:16.429Z,25.9
2019-03-10T06:44:07.545Z,25.9
2019-03-10T06:44:57.107Z,26
2019-03-10T06:45:46.078Z,26
2019-03-10T06:46:35.904Z,25.9
2019-03-10T06:47:26.200Z,25.8
2019-03-10T06:48:15.958Z,25.6
2019-03-10T06:49:07.665Z,25.6
2019-03-10T06:49:57.434Z,25.4
2019-03-10T06:50:47.500Z,25.3
2019-03-10T06:51:37.237Z,25.3
2019-03-10T06:52:27.655Z,25.2
2019-03-10T06:53:17.765Z,25.1
2019-03-10T06:54:07.714Z,25.1
2019-03-10T06:54:57.879Z,25
2019-03-10T06:55:47.562Z,24.9
2019-03-10T06:56:38.160Z,24.9
2019-03-10T06:57:28.004Z,24.9
2019-03-10T06:58:17.236Z,24.8
2019-03-10T06:59:08.364Z,24.8
2019-03-10T06:59:57.998Z,24.8
2019-03-10T07:00:47.965Z,24.8
2019-03-10T07:01:38.264Z,24.7
2019-03-10T07:02:28.368Z,24.7
2019-03-10T07:03:18.400Z,24.7
2019-03-10T07:06:34.236Z,24.6
2019-03-10T07:07:24.042Z,24.5
2019-03-10T07:08:13.569Z,24.5
2019-03-10T07:09:04.149Z,24.4
2019-03-10T07:09:55.083Z,24.4
2019-03-10T07:10:44.808Z,24.4
2019-03-10T07:11:34.671Z,24.4
2019-03-10T07:12:24.388Z,24.4
2019-03-10T07:13:15.309Z,24.4
2019-03-10T07:14:04.796Z,24.4
2019-03-10T07:14:54.863Z,24.4
2019-03-10T07:15:43.808Z,24.4
2019-03-10T07:16:34.718Z,24.5
2019-03-10T07:17:24.496Z,24.6
2019-03-10T07:18:13.996Z,24.6
2019-03-10T07:19:04.101Z,24.7
2019-03-10T07:19:54.383Z,24.8
2019-03-10T07:20:44.758Z,24.9
2019-03-10T07:21:33.403Z,25
2019-03-10T07:22:25.411Z,25.1
2019-03-10T07:23:15.270Z,25.3
2019-03-10T07:24:05.338Z,25.4
2019-03-10T07:24:55.306Z,25.5
2019-03-10T07:25:43.975Z,25.6
2019-03-10T07:26:34.602Z,25.8
2019-03-10T07:27:25.472Z,25.9
2019-03-10T07:28:14.999Z,25.9
2019-03-10T07:29:05.061Z,25.9
2019-03-10T07:29:55.340Z,25.9
2019-03-10T07:30:45.423Z,25.9
2019-03-10T07:31:35.479Z,25.8
2019-03-10T07:32:25.380Z,25.6
2019-03-10T07:33:15.682Z,25.5
2019-03-10T07:34:05.105Z,25.4
2019-03-10T07:34:56.549Z,25.4
2019-03-10T07:35:46.623Z,25.3
2019-03-10T07:36:35.835Z,25.2
2019-03-10T07:37:26.199Z,25.1
2019-03-10T07:38:16.564Z,25.1
2019-03-10T07:39:06.562Z,25
2019-03-10T07:39:56.117Z,25
2019-03-10T07:40:45.899Z,24.9
2019-03-10T07:41:37.074Z,24.9
2019-03-10T07:42:27.373Z,24.9
2019-03-10T07:43:16.672Z,24.8
2019-03-10T07:44:06.434Z,24.8
2019-03-10T07:44:56.707Z,24.8
2019-03-10T07:45:46.494Z,24.7
2019-03-10T07:46:37.454Z,24.7
2019-03-10T07:47:27.209Z,24.6
2019-03-10T07:48:16.422Z,24.6
2019-03-10T07:49:07.345Z,24.6
2019-03-10T07:49:56.564Z,24.6
2019-03-10T07:50:46.399Z,24.5
2019-03-10T07:51:37.284Z,24.5
2019-03-10T07:52:27.443Z,24.5
2019-03-10T07:53:17.874Z,24.5
2019-03-10T07:54:07.716Z,24.4
2019-03-10T07:54:57.191Z,24.4
2019-03-10T07:55:47.263Z,24.4
2019-03-10T07:56:37.584Z,24.3
2019-03-10T07:57:26.895Z,24.3
2019-03-10T07:58:17.206Z,24.3
2019-03-10T07:59:07.311Z,24.4
2019-03-10T07:59:57.266Z,24.4
2019-03-10T08:00:48.183Z,24.4
2019-03-10T08:01:38.241Z,24.5
2019-03-10T08:02:28.346Z,24.6
2019-03-10T08:03:18.386Z,24.6
2019-03-10T08:04:08.202Z,24.6
2019-03-10T08:04:57.801Z,24.8
2019-03-10T08:05:48.013Z,24.9
2019-03-10T08:06:37.818Z,25
2019-03-10T08:07:28.730Z,25.1
2019-03-10T08:08:18.006Z,25.3
2019-03-10T08:09:08.768Z,25.4
2019-03-10T08:09:58.833Z,25.6
2019-03-10T08:10:47.770Z,25.7
2019-03-10T08:11:37.886Z,25.8
2019-03-10T08:12:28.410Z,25.8
2019-03-10T08:13:17.980Z,25.8
2019-03-10T08:14:07.777Z,25.9
2019-03-10T08:14:58.935Z,25.9
2019-03-10T08:15:49.010Z,25.8
2019-03-10T08:16:38.466Z,25.8
2019-03-10T08:17:31.800Z,25.6
2019-03-10T08:18:19.135Z,25.5
2019-03-10T08:19:09.007Z,25.4
2019-03-10T08:19:59.311Z,25.3
2019-03-10T08:20:49.597Z,25.3
2019-03-10T08:21:39.404Z,25.2
2019-03-10T08:22:28.913Z,25.1
2019-03-10T08:23:19.564Z,25.1
2019-03-10T08:24:10.384Z,25
2019-03-10T08:24:59.619Z,24.9
2019-03-10T08:25:49.186Z,24.9
2019-03-10T08:26:40.544Z,24.8
2019-03-10T08:27:29.261Z,24.8
2019-03-10T08:28:22.394Z,24.8
2019-03-10T08:29:10.197Z,24.8
2019-03-10T08:29:59.762Z,24.7
2019-03-10T08:30:50.374Z,24.7
2019-03-10T08:31:40.154Z,24.6
2019-03-10T08:32:29.639Z,24.6
2019-03-10T08:33:19.688Z,24.6
2019-03-10T08:34:09.886Z,24.5
2019-03-10T08:35:00.444Z,24.5
2019-03-10T08:35:50.486Z,24.5
2019-03-10T08:36:40.269Z,24.4
2019-03-10T08:37:30.869Z,24.4
2019-03-10T08:38:20.683Z,24.4
2019-03-10T08:39:09.631Z,24.4
2019-03-10T08:39:59.983Z,24.3
2019-03-10T08:40:50.841Z,24.3
2019-03-10T08:41:41.123Z,24.3
2019-03-10T08:42:31.211Z,24.2
2019-03-10T08:43:21.121Z,24.3
2019-03-10T08:44:11.276Z,24.3
2019-03-10T08:45:00.070Z,24.4
2019-03-10T08:45:52.030Z,24.4
2019-03-10T08:46:41.478Z,24.6
2019-03-10T08:47:30.244Z,24.6
2019-03-10T08:48:21.293Z,24.7
2019-03-10T08:49:11.451Z,24.8
2019-03-10T08:50:01.455Z,24.9
2019-03-10T08:50:52.058Z,25.1
2019-03-10T08:51:41.840Z,25.3
2019-03-10T08:52:32.163Z,25.4
2019-03-10T08:53:21.155Z,25.6
2019-03-10T08:54:12.107Z,25.7
2019-03-10T08:55:01.886Z,25.8
2019-03-10T08:55:51.750Z,25.9
2019-03-10T08:56:42.256Z,25.9
2019-03-10T08:57:32.880Z,25.9
2019-03-10T08:58:22.648Z,25.9
2019-03-10T08:59:12.140Z,25.9
2019-03-10T09:00:01.600Z,25.8
2019-03-10T09:00:52.542Z,25.7
2019-03-10T09:01:42.381Z,25.6
2019-03-10T09:02:32.332Z,25.5
2019-03-10T09:03:22.481Z,25.4
2019-03-10T09:04:12.474Z,25.3
2019-03-10T09:05:03.002Z,25.3
2019-03-10T09:05:52.561Z,25.1
2019-03-10T09:06:45.675Z,25.1
2019-03-10T09:07:32.207Z,25.1
2019-03-10T09:08:23.019Z,25
2019-03-10T09:09:13.109Z,24.9
2019-03-10T09:10:03.494Z,24.9
2019-03-10T09:10:52.581Z,24.9
2019-03-10T09:11:42.792Z,24.8
2019-03-10T09:12:33.069Z,24.8
2019-03-10T09:13:23.407Z,24.8
2019-03-10T09:14:13.479Z,24.7
2019-03-10T09:15:03.977Z,24.7
2019-03-10T09:15:52.794Z,24.6
2019-03-10T09:16:44.314Z,24.6
2019-03-10T09:17:33.474Z,24.6
2019-03-10T09:18:23.227Z,24.5
2019-03-10T09:19:13.296Z,24.5
2019-03-10T09:20:03.852Z,24.4
2019-03-10T09:20:53.998Z,24.4
2019-03-10T09:21:44.114Z,24.4
2019-03-10T09:22:33.836Z,24.4
2019-03-10T09:23:24.129Z,24.4
2019-03-10T09:24:14.221Z,24.3
2019-03-10T09:25:04.026Z,24.3
2019-03-10T09:25:54.684Z,24.3
2019-03-10T09:26:43.278Z,24.3
2019-03-10T09:27:35.880Z,24.2
2019-03-10T09:28:23.963Z,24.2
2019-03-10T09:29:14.378Z,24.1
2019-03-10T09:30:04.805Z,24.1
2019-03-10T09:30:53.855Z,24.1
2019-03-10T09:31:45.077Z,24.1
2019-03-10T09:32:37.406Z,24.1
2019-03-10T09:33:25.221Z,24
2019-03-10T09:34:14.195Z,24
2019-03-10T09:35:05.297Z,23.9
2019-03-10T09:35:54.755Z,23.9
2019-03-10T09:36:44.268Z,23.9
2019-03-10T09:37:34.682Z,23.9
2019-03-10T09:38:25.773Z,23.9
2019-03-10T09:39:15.016Z,23.9
2019-03-10T09:40:05.394Z,23.8
2019-03-10T09:40:55.470Z,23.8
2019-03-10T09:41:45.242Z,23.8
2019-03-10T09:42:34.868Z,23.8
2019-03-10T09:43:25.892Z,23.7
2019-03-10T09:44:15.423Z,23.7
2019-03-10T09:45:06.284Z,23.6
2019-03-10T09:45:55.535Z,23.6
2019-03-10T09:46:44.864Z,23.6
2019-03-10T09:47:35.362Z,23.6
2019-03-10T09:48:25.693Z,23.6
2019-03-10T09:49:15.990Z,23.6
2019-03-10T09:50:05.194Z,23.5
2019-03-10T09:50:55.580Z,23.5
2019-03-10T09:51:45.913Z,23.5
2019-03-10T09:52:35.413Z,23.4
2019-03-10T09:53:26.598Z,23.4
2019-03-10T09:54:16.371Z,23.4
2019-03-10T09:55:08.470Z,23.4
2019-03-10T09:55:56.021Z,23.4
2019-03-10T09:56:45.224Z,23.3
2019-03-10T09:57:35.862Z,23.3
2019-03-10T09:58:26.196Z,23.3
2019-03-10T09:59:17.012Z,23.3
2019-03-10T10:00:06.748Z,23.2
2019-03-10T10:00:56.636Z,23.2
2019-03-10T10:01:46.426Z,23.2
2019-03-10T10:02:36.980Z,23.1
2019-03-10T10:03:27.591Z,23.1
2019-03-10T10:04:17.203Z,23.1
2019-03-10T10:06:43.265Z,23
2019-03-10T10:07:33.089Z,23
2019-03-10T10:08:24.023Z,23
2019-03-10T10:09:13.696Z,22.9
2019-03-10T10:10:03.888Z,22.9
2019-03-10T10:10:54.611Z,22.9
2019-03-10T10:11:44.487Z,22.9
2019-03-10T10:12:34.216Z,22.9
2019-03-10T10:13:24.271Z,22.8
2019-03-10T10:14:15.168Z,22.8
2019-03-10T10:15:04.718Z,22.8
2019-03-10T10:15:54.981Z,22.8
2019-03-10T10:16:44.211Z,22.8
2019-03-10T10:17:34.001Z,22.8
2019-03-10T10:18:24.573Z,22.7
2019-03-10T10:19:14.448Z,22.7
2019-03-10T10:20:04.828Z,22.6
2019-03-10T10:20:55.610Z,22.6
2019-03-10T10:21:44.305Z,22.6
2019-03-10T10:22:34.645Z,22.6
2019-03-10T10:23:24.971Z,22.6
2019-03-10T10:24:14.537Z,22.6
2019-03-10T10:25:05.436Z,22.5
2019-03-10T10:25:54.680Z,22.5
2019-03-10T10:26:45.040Z,22.4
2019-03-10T10:27:35.380Z,22.4
2019-03-10T10:28:24.638Z,22.4
2019-03-10T10:29:15.495Z,22.4
2019-03-10T10:30:05.283Z,22.4
2019-03-10T10:30:55.045Z,22.4
2019-03-10T10:31:44.597Z,22.4
2019-03-10T10:32:35.695Z,22.3
2019-03-10T10:33:25.587Z,22.3
2019-03-10T10:34:16.317Z,22.3
2019-03-10T10:35:06.387Z,22.3
2019-03-10T10:35:55.927Z,22.3
2019-03-10T10:36:45.130Z,22.3
2019-03-10T10:37:38.832Z,22.3
2019-03-10T10:38:25.939Z,22.2
2019-03-10T10:39:16.464Z,22.2
2019-03-10T10:40:07.007Z,22.2
2019-03-10T10:40:55.985Z,22.1
2019-03-10T10:41:46.608Z,22.1
2019-03-10T10:42:36.926Z,22.1
2019-03-10T10:43:26.222Z,22.1
2019-03-10T10:44:16.767Z,22.1
2019-03-10T10:45:06.677Z,22
2019-03-10T10:45:59.462Z,22
2019-03-10T10:46:47.225Z,22
2019-03-10T10:47:35.911Z,22
2019-03-10T10:48:26.499Z,21.9
2019-03-10T10:49:16.934Z,21.9
2019-03-10T10:50:07.643Z,21.9
2019-03-10T10:50:57.188Z,21.9
2019-03-10T10:51:47.741Z,21.9
2019-03-10T10:52:37.312Z,21.9
2019-03-10T10:53:28.755Z,21.8
2019-03-10T10:54:17.381Z,21.8
2019-03-10T10:55:07.657Z,21.8
2019-03-10T10:55:57.315Z,21.8
2019-03-10T10:56:47.932Z,21.8
2019-03-10T10:57:37.505Z,21.8
2019-03-10T10:58:27.524Z,21.8
2019-03-10T10:59:17.592Z,21.8
2019-03-10T11:00:07.130Z,21.7
2019-03-10T11:00:58.539Z,21.8
2019-03-10T11:01:47.512Z,21.7
2019-03-10T11:02:38.093Z,21.7
2019-03-10T11:03:27.658Z,21.6
2019-03-10T11:04:17.953Z,21.6
2019-03-10T11:05:07.851Z,21.6
2019-03-10T11:05:57.778Z,21.6
2019-03-10T11:06:48.455Z,21.6
2019-03-10T11:07:38.490Z,21.6
2019-03-10T11:08:28.658Z,21.6
2019-03-10T11:09:18.068Z,21.6
2019-03-10T11:10:09.000Z,21.5
2019-03-10T11:10:58.455Z,21.5
2019-03-10T11:11:48.871Z,21.5
2019-03-10T11:12:39.097Z,21.4
2019-03-10T11:13:28.410Z,21.4
2019-03-10T11:14:17.834Z,21.4
2019-03-10T11:15:09.582Z,21.4
2019-03-10T11:16:00.259Z,21.4
2019-03-10T11:16:51.562Z,21.4
2019-03-10T11:17:38.852Z,21.4
2019-03-10T11:18:28.136Z,21.4
2019-03-10T11:19:19.335Z,21.4
2019-03-10T11:20:08.839Z,21.4
2019-03-10T11:21:01.780Z,21.3
2019-03-10T11:21:48.957Z,21.4
2019-03-10T11:22:39.484Z,21.3
2019-03-10T11:23:28.782Z,21.3
2019-03-10T11:24:20.177Z,21.3
2019-03-10T11:25:08.645Z,21.3
2019-03-10T11:25:59.020Z,21.3
2019-03-10T11:26:49.307Z,21.3
2019-03-10T11:27:39.162Z,21.3
2019-03-10T11:28:29.487Z,21.3
2019-03-10T11:29:19.844Z,21.3
2019-03-10T11:30:08.351Z,21.3
2019-03-10T11:30:58.602Z,21.3
2019-03-10T11:31:48.944Z,21.3
2019-03-10T11:32:39.308Z,21.3
2019-03-10T11:33:32.826Z,21.2
2019-03-10T11:34:19.094Z,21.2
2019-03-10T11:35:09.682Z,21.2
2019-03-10T11:36:00.489Z,21.2
2019-03-10T11:36:51.653Z,21.2
2019-03-10T11:37:40.472Z,21.2
2019-03-10T11:39:20.044Z,21.2
2019-03-10T11:46:51.358Z,21.1
2019-03-10T11:47:41.175Z,21.1
2019-03-10T11:48:31.788Z,21.1
2019-03-10T11:49:21.273Z,21.1
2019-03-10T11:50:11.688Z,21.1
2019-03-10T11:51:02.214Z,21.1
2019-03-10T11:51:51.823Z,21.1
2019-03-10T11:52:41.313Z,21
2019-03-10T11:53:32.870Z,21
2019-03-10T11:54:21.373Z,21
2019-03-10T11:55:13.158Z,21.1
2019-03-10T11:56:02.042Z,21
2019-03-10T11:56:52.175Z,21
2019-03-10T11:57:41.628Z,21
2019-03-10T11:58:34.907Z,21
2019-03-10T11:59:21.248Z,21
2019-03-10T12:00:11.850Z,21
2019-03-10T12:01:01.912Z,21
2019-03-10T12:01:52.220Z,20.9
2019-03-10T12:02:42.265Z,21
2019-03-10T12:03:31.776Z,20.9
2019-03-10T12:04:21.855Z,20.9
2019-03-10T12:06:43.718Z,20.9
2019-03-10T12:07:33.503Z,20.9
2019-03-10T12:08:23.877Z,20.9
2019-03-10T12:09:14.189Z,20.9
2019-03-10T12:10:04.838Z,20.9
2019-03-10T12:10:54.305Z,20.9
2019-03-10T12:11:43.889Z,20.9
2019-03-10T12:12:34.132Z,20.9
2019-03-10T12:13:24.212Z,20.9
2019-03-10T12:14:14.363Z,20.9
2019-03-10T12:15:04.876Z,20.9
2019-03-10T12:15:54.416Z,20.9
2019-03-10T12:16:44.532Z,20.9
2019-03-10T12:17:35.051Z,20.9
2019-03-10T12:18:24.634Z,20.9
2019-03-10T12:19:14.631Z,20.9
2019-03-10T12:20:04.291Z,20.9
2019-03-10T12:20:54.499Z,20.9
2019-03-10T12:21:44.530Z,20.9
2019-03-10T12:22:35.509Z,20.9
2019-03-10T12:23:25.572Z,20.9
2019-03-10T12:24:14.301Z,20.9
2019-03-10T12:25:05.411Z,20.9
2019-03-10T12:25:54.826Z,20.9
2019-03-10T12:26:45.476Z,20.8
2019-03-10T12:27:35.293Z,20.9
2019-03-10T12:28:24.993Z,20.9
2019-03-10T12:29:15.116Z,20.8
2019-03-10T12:30:05.952Z,20.8
2019-03-10T12:30:55.155Z,20.9
2019-03-10T12:31:46.108Z,20.9
2019-03-10T12:32:35.572Z,20.9
2019-03-10T12:33:24.950Z,20.9
2019-03-10T12:34:16.014Z,20.9
2019-03-10T12:35:05.649Z,20.8
2019-03-10T12:35:55.285Z,20.8
2019-03-10T12:36:47.961Z,20.8
2019-03-10T12:37:36.775Z,20.8
2019-03-10T12:38:26.865Z,20.8
2019-03-10T12:39:18.232Z,20.8
2019-03-10T12:40:06.255Z,20.8
2019-03-10T12:40:56.157Z,20.8
2019-03-10T12:41:59.028Z,20.8
2019-03-10T12:42:36.555Z,20.8
2019-03-10T12:43:25.917Z,20.8
2019-03-10T12:44:16.190Z,20.8
2019-03-10T12:45:06.515Z,20.8
2019-03-10T12:45:56.857Z,20.8
2019-03-10T12:46:46.614Z,20.8
2019-03-10T12:47:36.255Z,20.8
2019-03-10T12:48:27.266Z,20.8
2019-03-10T12:49:17.110Z,20.8
2019-03-10T12:50:06.764Z,20.8
2019-03-10T12:50:56.692Z,20.8
2019-03-10T12:51:46.945Z,20.8
2019-03-10T12:52:37.299Z,20.8
2019-03-10T12:53:27.364Z,20.8
2019-03-10T12:54:17.137Z,20.8
2019-03-10T12:55:07.894Z,20.8
2019-03-10T12:55:56.734Z,20.8
2019-03-10T12:56:48.044Z,20.8
2019-03-10T12:57:37.994Z,20.8
2019-03-10T12:58:27.725Z,20.8
2019-03-10T12:59:16.442Z,20.8
2019-03-10T13:00:07.091Z,20.8
2019-03-10T13:01:10.563Z,20.8
2019-03-10T13:01:48.527Z,20.8
2019-03-10T13:02:38.076Z,20.8
2019-03-10T13:03:28.399Z,20.8
2019-03-10T13:04:20.916Z,20.8
2019-03-10T13:05:07.449Z,20.8
2019-03-10T13:05:58.301Z,20.8
2019-03-10T13:06:48.033Z,20.8
2019-03-10T13:07:38.413Z,20.8
2019-03-10T13:08:27.356Z,20.8
2019-03-10T13:09:17.951Z,20.8
2019-03-10T13:10:08.054Z,20.8
2019-03-10T13:10:58.984Z,20.8
2019-03-10T13:11:48.769Z,20.8
2019-03-10T13:12:38.818Z,20.8
2019-03-10T13:13:27.758Z,20.8
2019-03-10T13:14:18.618Z,20.8
2019-03-10T13:15:07.820Z,20.8
2019-03-10T13:15:58.523Z,20.8
2019-03-10T13:16:48.008Z,20.8
2019-03-10T13:17:38.589Z,20.8
2019-03-10T13:18:28.793Z,20.8
2019-03-10T13:19:19.119Z,20.8
2019-03-10T13:20:09.086Z,20.8
2019-03-10T13:20:59.450Z,20.8
2019-03-10T13:21:50.299Z,20.8
2019-03-10T13:22:39.617Z,20.8
2019-03-10T13:23:29.245Z,20.8
2019-03-10T13:24:18.783Z,20.7
2019-03-10T13:25:08.680Z,20.7
2019-03-10T13:25:58.780Z,20.7
2019-03-10T13:26:49.615Z,20.7
2019-03-10T13:27:38.623Z,20.8
2019-03-10T13:28:28.953Z,20.8
2019-03-10T13:29:19.517Z,20.8
2019-03-10T13:30:09.852Z,20.7
2019-03-10T13:30:59.450Z,20.8
2019-03-10T13:31:50.230Z,20.7
2019-03-10T13:32:39.205Z,20.8
2019-03-10T13:33:29.855Z,20.7
2019-03-10T13:34:20.220Z,20.7
2019-03-10T13:35:09.691Z,20.7
2019-03-10T13:36:02.853Z,20.8
2019-03-10T13:36:49.727Z,20.7
2019-03-10T13:37:40.042Z,20.7
2019-03-10T13:38:30.369Z,20.7
2019-03-10T13:39:20.462Z,20.8
2019-03-10T13:40:10.284Z,20.8
2019-03-10T13:41:03.879Z,20.8
2019-03-10T13:41:50.887Z,20.7
2019-03-10T13:42:39.830Z,20.7
2019-03-10T13:43:30.469Z,20.7
2019-03-10T13:44:21.088Z,20.8
2019-03-10T13:45:11.515Z,20.7
2019-03-10T13:46:00.909Z,20.7
2019-03-10T13:46:51.312Z,20.7
2019-03-10T13:47:41.069Z,20.7
2019-03-10T13:48:31.399Z,20.8
2019-03-10T13:49:20.948Z,20.8
2019-03-10T13:50:11.262Z,20.7
2019-03-10T13:51:02.151Z,20.7
2019-03-10T13:51:50.807Z,20.8
2019-03-10T13:52:41.161Z,20.7
2019-03-10T13:53:31.431Z,20.7
2019-03-10T13:54:22.084Z,20.8
2019-03-10T13:55:11.285Z,20.7
2019-03-10T13:56:01.393Z,20.7
2019-03-10T13:56:51.989Z,20.7
2019-03-10T13:57:42.347Z,20.8
2019-03-10T13:58:32.100Z,20.8
2019-03-10T13:59:21.903Z,20.8
2019-03-10T14:00:11.971Z,20.8
2019-03-10T14:01:01.178Z,20.8
2019-03-10T14:01:51.001Z,20.7
2019-03-10T14:02:41.831Z,20.7
2019-03-10T14:03:31.606Z,20.7
2019-03-10T14:04:22.557Z,20.7
2019-03-10T14:05:12.335Z,20.8
2019-03-10T14:07:44.211Z,20.7
2019-03-10T14:08:34.208Z,20.7
2019-03-10T14:09:23.115Z,20.7
2019-03-10T14:10:16.855Z,20.7
2019-03-10T14:11:03.967Z,20.8
2019-03-10T14:11:53.591Z,20.8
2019-03-10T14:12:43.882Z,20.7
2019-03-10T14:13:34.315Z,20.7
2019-03-10T14:14:24.347Z,20.7
2019-03-10T14:15:13.106Z,20.7
2019-03-10T14:16:04.022Z,20.6
2019-03-10T14:16:53.731Z,20.7
2019-03-10T14:17:43.820Z,20.7
2019-03-10T14:18:34.935Z,20.7
2019-03-10T14:19:24.704Z,20.7
2019-03-10T14:20:15.057Z,20.7
2019-03-10T14:21:04.418Z,20.7
2019-03-10T14:21:54.640Z,20.7
2019-03-10T14:22:44.131Z,20.7
2019-03-10T14:23:34.491Z,20.7
2019-03-10T14:24:24.817Z,20.7
2019-03-10T14:25:14.892Z,20.7
2019-03-10T14:26:05.585Z,20.7
2019-03-10T14:26:54.984Z,20.7
2019-03-10T14:27:45.600Z,20.7
2019-03-10T14:28:34.529Z,20.7
2019-03-10T14:29:25.736Z,20.7
2019-03-10T14:30:14.466Z,20.7
2019-03-10T14:31:05.299Z,20.6
2019-03-10T14:31:55.362Z,20.7
2019-03-10T14:32:46.106Z,20.7